ASN logo
Last updated: 6 December 2019
Statuts:
Date:vendredi 22 novembre 2019
Heure:19:16
Type/Sous-type:Silhouette image of generic B734 model; specific model in this crash may look slightly different
Boeing 737-401
Compagnie:Avior - Aviones de Oriente
Immatriculation: YV3012
Numéro de série: 23990/1732
Année de Fabrication: 1989-06-02 (30 years 6 months)
Moteurs: 2 CFMI CFM56-3B2
Equipage:victimes: 0 / à bord:
Passagers:victimes: 0 / à bord:
Total:victimes: 0 / à bord:
Dégats de l'appareil: Substantiels
Lieu de l'accident:Bogotá-Eldorado Airport (BOG) (   Colombie)
Phase de vol: A l'atterrissage (LDG)
Nature:Transport de Passagers Intern.
Aéroport de départ:Valencia Airport (VLN/SVVA), Vénézuela
Aéroport de destination:Bogotá-Eldorado Airport (BOG/SKBO), Colombie
Numéro de vol:9V1400
Détails:
Avior flight 1400, a Boeing 737-400, suffered a collapse of the right-hand main landing gear on landing at Bogotá-Eldorado Airport, Colombia.
The aircraft operated on a flight from Valencia.

Sources:
» torreeldorado.co

METAR Weather report:
00:00 UTC / 19:00 local time:
SKBO 230000Z 25003KT 9999 SCT017 13/11 A3029 NOSIG

01:00 UTC / 20:00 local time:
SKBO 230100Z 29004KT 9999 FEW015 SCT200 12/10 A3030 NOSIG


Photos

Add your photo of this accident or aircraft

Video, social media

Plan
Ce plan montre l'aéroport de départ ainsi que la supposée destination du vol. La ligne fixe reliant les deux aéroports n'est pas le plan de vol exact.
La distance entre Valencia Airport et Bogotá-Eldorado Airport est de 910 km (569 miles).
Accident location: Approximate; accuracy within a few kilometers.

Les informations ci-dessus ne représentent pas l'opinion de la 'Flight Safety Foundation' ou de 'Aviation Safety Network' sur les causes de l'accident. Ces informations prélimimaires sont basées sur les faits tel qu'ils sont connus à ce jour.
languages: languages

Share